CWYO2: Chewey Road

Data processed at Sat Dec 15 2018 23:32


All information presented herein is the property of the government of the United States of America and may be revised or deleted at any time without prior notice.
Dissemination of this information without the expressed written consent of the Public Affairs Office, Tulsa District U.S. Army Corps of Engineers is strictly prohibited.
These data are gathered electronically and, as presented, have not undergone any form of quality control. These data are not guaranteed to be valid or correct.
Go to home page.
Go to station list.
Go to home page.

Upstream stations:

Downstream station:
Previous Day
Next Day
Current Day
    
SHEF ID:       CWYO2     Illinois River at Chewey, OK
STATION TYPE:  

               PRECIP     STAGE  STAGE(2)  RIV-FLOW  BAT-LOAD
                   in        ft        ft       cfs      volt
              Ccp-Rev   Ccp-Rev   Ccp-Rev   Ccp-Rev   Ccp-Rev
(US/Central)
12/15 00:00      0.00      4.09      4.09       380     12.19
12/15 01:00      0.00      4.09      4.11       380     12.19
12/15 02:00      0.00      4.11      4.12       390     12.19
12/15 03:00      0.00      4.13      4.13       401     12.19
12/15 04:00      0.00      4.14      4.14       406     12.19
12/15 05:00      0.00      4.15      4.15       412     12.19
12/15 06:00      0.00      4.16      4.16       417     12.19
12/15 07:00      0.00      4.16      4.16       417     12.19
12/15 08:00      0.00      4.17      4.17       422     12.19
12/15 09:00      0.00      4.17      4.18       422     12.42
12/15 10:00      0.00      4.18      4.18       428     12.83
12/15 11:00      0.00      4.12      4.18       395     12.89
12/15 12:00      0.00      4.18      4.18       428     12.89
12/15 13:00      0.00      4.19      4.18       434     12.60
12/15 14:00      0.00      4.13      4.19       401     13.07
12/15 15:00      0.00      4.20      4.19       439     12.71
12/15 16:00      0.00      4.18      4.19       428     12.65
12/15 17:00      0.00      4.19      4.19       434     12.54
12/15 18:00      0.00      4.19      4.20       434     12.48
12/15 19:00      0.00      4.19      4.20       434     12.48
12/15 20:00      0.00      4.19      4.20       434     12.42
12/15 21:00      0.00      4.19      4.20       434     12.42
12/15 22:00      0.00      4.20      4.20       439     12.42
12/15 23:00      0.00      4.20      4.21       439     12.36